Time;durP1;ratioP1;P1;durP2;ratioP2;P2;SDS_P1;SDS_P2;PMS_P1;PMS_P2;Temp;Humidity;BMP_temperature;BMP_pressure;BME280_temperature;BME280_humidity;BME280_pressure;Samples;Min_cycle;Max_cycle;Signal;HPM_P1;HPM_P2
2021/06/19 00:00:18;;;;;;;2.70;1.10;;;;;;;;;;5056167;28;20033;-53
2021/06/19 00:02:45;;;;;;;4.23;1.43;;;;;;;;;;5056091;28;20029;-53
2021/06/19 00:05:12;;;;;;;4.17;1.50;;;;;;;;;;5056055;28;20028;-53
2021/06/19 00:07:39;;;;;;;3.07;1.70;;;;;;;;;;5056031;28;20039;-53
2021/06/19 00:10:06;;;;;;;4.27;2.10;;;;;;;;;;5056397;28;20025;-53
2021/06/19 00:12:34;;;;;;;4.43;1.87;;;;;;;;;;5055881;28;20155;-53
2021/06/19 00:15:01;;;;;;;7.23;2.07;;;;;;;;;;5055864;28;20037;-53
2021/06/19 00:17:28;;;;;;;5.40;2.63;;;;;;;;;;5055857;28;20036;-53
2021/06/19 00:19:55;;;;;;;4.53;2.07;;;;;;;;;;5055920;28;20422;-53
2021/06/19 00:22:22;;;;;;;6.23;2.27;;;;;;;;;;5055720;28;20112;-53
2021/06/19 00:24:49;;;;;;;2.70;1.93;;;;;;;;;;5055686;28;20522;-53
2021/06/19 00:27:16;;;;;;;3.70;2.13;;;;;;;;;;5055794;28;20032;-52
2021/06/19 00:29:42;;;;;;;6.03;1.57;;;;;;;;;;5055721;28;20048;-53
2021/06/19 00:32:09;;;;;;;4.87;1.57;;;;;;;;;;5055555;28;20028;-53
2021/06/19 00:34:36;;;;;;;2.10;1.20;;;;;;;;;;5055544;28;20376;-53
2021/06/19 00:37:03;;;;;;;3.10;1.60;;;;;;;;;;5055423;28;20124;-52
2021/06/19 00:39:30;;;;;;;6.87;2.10;;;;;;;;;;5055725;28;20043;-53
2021/06/19 00:41:56;;;;;;;3.90;1.77;;;;;;;;;;5055462;28;20383;-53
2021/06/19 00:44:23;;;;;;;5.27;2.07;;;;;;;;;;5054507;28;20028;-52
2021/06/19 00:46:53;;;;;;;2.87;1.60;;;;;;;;;;5055329;28;20032;-53
2021/06/19 00:49:34;;;;;;;4.07;1.97;;;;;;;;;;5055328;28;20036;-53
2021/06/19 00:52:00;;;;;;;6.00;2.07;;;;;;;;;;5055137;28;20112;-52
2021/06/19 00:54:27;;;;;;;6.47;2.20;;;;;;;;;;5055106;28;20122;-53
2021/06/19 00:56:54;;;;;;;7.47;2.40;;;;;;;;;;5055039;28;20068;-53
2021/06/19 00:59:21;;;;;;;3.03;1.90;;;;;;;;;;5055464;28;20167;-53
2021/06/19 01:01:48;;;;;;;2.93;1.63;;;;;;;;;;5055131;28;20029;-53
2021/06/19 01:04:15;;;;;;;5.07;1.80;;;;;;;;;;5055009;28;20028;-53
2021/06/19 01:06:43;;;;;;;4.60;1.73;;;;;;;;;;5055007;28;20021;-53
2021/06/19 01:09:10;;;;;;;5.23;1.60;;;;;;;;;;5054847;28;20518;-53
2021/06/19 01:11:40;;;;;;;2.10;1.03;;;;;;;;;;5055004;28;20055;-53
2021/06/19 01:14:07;;;;;;;4.77;1.60;;;;;;;;;;5054742;28;20404;-53
2021/06/19 01:16:35;;;;;;;2.30;1.13;;;;;;;;;;5054748;28;20040;-53
2021/06/19 01:19:02;;;;;;;3.70;1.10;;;;;;;;;;5054717;28;20025;-53
2021/06/19 01:21:30;;;;;;;1.20;0.60;;;;;;;;;;5054767;28;20107;-53
2021/06/19 01:23:57;;;;;;;1.50;0.70;;;;;;;;;;5054502;28;20029;-53
2021/06/19 01:26:25;;;;;;;1.50;0.70;;;;;;;;;;5054613;28;20037;-53
2021/06/19 01:28:53;;;;;;;1.30;0.70;;;;;;;;;;5054547;28;20057;-53
2021/06/19 01:31:20;;;;;;;4.37;0.93;;;;;;;;;;5054604;28;20380;-53
2021/06/19 01:33:48;;;;;;;4.30;1.20;;;;;;;;;;5054357;28;20021;-53
2021/06/19 01:36:15;;;;;;;3.33;0.57;;;;;;;;;;5054214;28;20488;-53
2021/06/19 01:38:44;;;;;;;1.67;1.00;;;;;;;;;;5054227;28;20021;-53
2021/06/19 01:41:18;;;;;;;1.17;0.63;;;;;;;;;;5054359;28;20032;-53
2021/06/19 01:43:46;;;;;;;2.37;0.70;;;;;;;;;;5054324;28;20025;-53
2021/06/19 01:46:13;;;;;;;1.00;0.70;;;;;;;;;;5054259;28;20024;-52
2021/06/19 01:48:40;;;;;;;1.90;0.90;;;;;;;;;;5054130;28;20061;-53
2021/06/19 01:51:13;;;;;;;1.07;0.70;;;;;;;;;;5053986;28;20028;-53
2021/06/19 01:53:43;;;;;;;0.80;0.40;;;;;;;;;;5054028;28;20470;-53
2021/06/19 01:56:11;;;;;;;0.63;0.30;;;;;;;;;;5052733;28;20056;-52
2021/06/19 01:58:37;;;;;;;3.03;0.63;;;;;;;;;;5053954;28;20104;-53
2021/06/19 02:01:05;;;;;;;7.43;0.57;;;;;;;;;;5054095;28;20025;-53
2021/06/19 02:03:32;;;;;;;0.80;0.40;;;;;;;;;;5054019;28;20083;-53
2021/06/19 02:05:59;;;;;;;3.43;0.70;;;;;;;;;;5053992;28;20056;-53
2021/06/19 02:08:26;;;;;;;1.77;0.70;;;;;;;;;;5053899;28;20025;-53
2021/06/19 02:10:53;;;;;;;1.27;0.70;;;;;;;;;;5053758;28;20056;-53
2021/06/19 02:13:19;;;;;;;2.93;0.80;;;;;;;;;;5053756;28;20379;-53
2021/06/19 02:15:47;;;;;;;3.07;1.27;;;;;;;;;;5053603;28;20045;-53
2021/06/19 02:18:14;;;;;;;1.13;0.60;;;;;;;;;;5053686;28;20535;-53
2021/06/19 02:20:41;;;;;;;5.10;0.50;;;;;;;;;;5053531;28;20025;-53
2021/06/19 02:23:07;;;;;;;2.27;0.60;;;;;;;;;;5053561;28;20487;-53
2021/06/19 02:25:34;;;;;;;0.40;0.40;;;;;;;;;;5053431;28;20052;-53
2021/06/19 02:28:09;;;;;;;1.00;0.40;;;;;;;;;;5053462;28;20067;-53
2021/06/19 02:30:40;;;;;;;1.45;0.50;;;;;;;;;;5033198;28;20057;-53
2021/06/19 02:33:07;;;;;;;2.23;0.50;;;;;;;;;;5033494;28;20022;-53
2021/06/19 02:35:35;;;;;;;3.47;0.43;;;;;;;;;;5033261;28;20037;-53
2021/06/19 02:38:02;;;;;;;3.97;0.97;;;;;;;;;;5033374;28;20029;-53
2021/06/19 02:40:29;;;;;;;3.10;0.63;;;;;;;;;;5033645;28;20380;-53
2021/06/19 02:42:56;;;;;;;2.10;0.40;;;;;;;;;;5033204;28;20033;-53
2021/06/19 02:45:23;;;;;;;3.57;0.80;;;;;;;;;;5033075;28;20473;-53
2021/06/19 02:47:51;;;;;;;2.83;0.80;;;;;;;;;;5033055;28;20044;-53
2021/06/19 02:50:19;;;;;;;5.40;0.80;;;;;;;;;;5033137;28;20478;-53
2021/06/19 02:52:47;;;;;;;5.20;0.73;;;;;;;;;;5032960;28;20539;-53
2021/06/19 02:55:15;;;;;;;6.17;0.97;;;;;;;;;;5032833;28;20041;-53
2021/06/19 02:57:42;;;;;;;2.67;0.53;;;;;;;;;;5033065;28;20157;-53
2021/06/19 03:00:10;;;;;;;1.33;0.70;;;;;;;;;;5032862;28;20025;-53
2021/06/19 03:02:37;;;;;;;2.63;0.57;;;;;;;;;;5032836;28;20051;-53
2021/06/19 03:05:05;;;;;;;1.43;0.53;;;;;;;;;;5032779;28;20029;-53
2021/06/19 03:07:32;;;;;;;4.33;1.23;;;;;;;;;;5032516;28;20034;-53
2021/06/19 03:09:59;;;;;;;5.93;0.80;;;;;;;;;;5033092;28;20030;-53
2021/06/19 03:12:27;;;;;;;2.57;1.70;;;;;;;;;;5032778;28;20522;-53
2021/06/19 03:14:54;;;;;;;1.60;0.90;;;;;;;;;;5032684;28;20500;-53
2021/06/19 03:17:21;;;;;;;3.53;0.60;;;;;;;;;;5032718;28;20041;-53
2021/06/19 03:19:48;;;;;;;3.50;1.00;;;;;;;;;;5032854;28;20021;-53
2021/06/19 03:22:15;;;;;;;3.60;0.63;;;;;;;;;;5032639;28;20499;-53
2021/06/19 03:24:43;;;;;;;1.37;0.67;;;;;;;;;;5032663;28;20033;-54
2021/06/19 03:27:11;;;;;;;3.27;0.67;;;;;;;;;;5032686;28;20025;-53
2021/06/19 03:29:51;;;;;;;2.00;0.60;;;;;;;;;;5033968;28;20046;-53
2021/06/19 03:32:17;;;;;;;8.10;3.50;;;;;;;;;;5032504;28;20029;-53
2021/06/19 03:34:44;;;;;;;4.17;2.43;;;;;;;;;;5032557;28;20029;-53
2021/06/19 03:37:11;;;;;;;6.87;2.77;;;;;;;;;;5032466;28;20452;-54
2021/06/19 03:39:38;;;;;;;5.00;3.10;;;;;;;;;;5032557;28;20017;-53
2021/06/19 03:42:05;;;;;;;7.13;3.10;;;;;;;;;;5032453;28;20025;-53
2021/06/19 03:44:31;;;;;;;9.47;4.13;;;;;;;;;;5032386;28;20068;-53
2021/06/19 03:46:58;;;;;;;7.00;3.50;;;;;;;;;;5032540;28;20032;-53
2021/06/19 03:49:25;;;;;;;7.07;2.67;;;;;;;;;;5032510;28;20036;-53
2021/06/19 03:51:52;;;;;;;4.23;2.00;;;;;;;;;;5032255;28;20034;-53
2021/06/19 03:54:20;;;;;;;4.80;1.70;;;;;;;;;;5032327;28;20065;-53
2021/06/19 03:56:47;;;;;;;2.43;1.40;;;;;;;;;;5032444;28;20037;-53
2021/06/19 03:59:13;;;;;;;6.30;2.00;;;;;;;;;;5014578;28;20499;-53
2021/06/19 04:01:40;;;;;;;6.17;1.20;;;;;;;;;;5032266;28;20502;-53
2021/06/19 04:04:07;;;;;;;3.60;1.20;;;;;;;;;;5032144;28;20420;-53
2021/06/19 04:06:34;;;;;;;5.73;0.77;;;;;;;;;;5032183;28;20043;-53
2021/06/19 04:09:00;;;;;;;3.40;0.80;;;;;;;;;;5032306;28;20028;-53
2021/06/19 04:11:27;;;;;;;8.70;1.00;;;;;;;;;;5032165;28;20120;-53
2021/06/19 04:13:54;;;;;;;1.43;0.60;;;;;;;;;;5032262;28;20022;-53
2021/06/19 04:16:21;;;;;;;1.07;0.50;;;;;;;;;;5032047;28;20041;-53
2021/06/19 04:18:52;;;;;;;1.90;0.60;;;;;;;;;;5033351;28;20021;-53
2021/06/19 04:21:28;;;;;;;3.40;0.50;;;;;;;;;;5035590;28;20359;-53
2021/06/19 04:24:05;;;;;;;2.27;0.37;;;;;;;;;;5035684;28;20566;-52
2021/06/19 04:26:39;;;;;;;6.43;0.60;;;;;;;;;;5036113;28;20018;-53
2021/06/19 04:29:21;;;;;;;2.03;0.60;;;;;;;;;;5031487;28;20049;-53
2021/06/19 04:32:06;;;;;;;1.87;0.60;;;;;;;;;;5035743;28;20026;-53
2021/06/19 04:34:46;;;;;;;6.63;0.37;;;;;;;;;;5035660;28;20030;-53
2021/06/19 04:37:27;;;;;;;4.93;0.93;;;;;;;;;;5035028;28;20046;-53
2021/06/19 04:40:13;;;;;;;3.37;0.60;;;;;;;;;;5035169;28;20104;-53
2021/06/19 04:42:45;;;;;;;3.40;0.70;;;;;;;;;;5035493;28;20032;-52
2021/06/19 04:45:15;;;;;;;1.70;0.37;;;;;;;;;;5035438;28;20040;-52
2021/06/19 04:47:50;;;;;;;7.97;0.87;;;;;;;;;;5035410;28;20033;-53
2021/06/19 04:50:21;;;;;;;;;;;;;;;;;;5035588;28;20072;-53
2021/06/19 04:52:56;;;;;;;2.10;0.47;;;;;;;;;;5035310;28;19956;-52
2021/06/19 04:55:41;;;;;;;1.75;0.30;;;;;;;;;;5035151;28;20022;-52
2021/06/19 04:58:32;;;;;;;1.40;0.40;;;;;;;;;;5035199;28;20021;-53
2021/06/19 05:01:00;;;;;;;2.10;0.50;;;;;;;;;;5034024;28;20611;-53
2021/06/19 05:03:39;;;;;;;1.83;0.90;;;;;;;;;;5028955;28;20595;-53
2021/06/19 05:06:19;;;;;;;9.73;0.90;;;;;;;;;;5034715;28;20026;-53
2021/06/19 05:09:14;;;;;;;3.30;0.37;;;;;;;;;;5035127;28;20029;-53
2021/06/19 05:11:45;;;;;;;3.13;0.40;;;;;;;;;;5035122;28;20029;-52
2021/06/19 05:14:31;;;;;;;1.63;0.50;;;;;;;;;;5034166;28;20045;-53
2021/06/19 05:16:58;;;;;;;3.47;0.50;;;;;;;;;;5034756;28;20037;-52
2021/06/19 05:19:25;;;;;;;5.90;0.50;;;;;;;;;;5017072;28;20400;-54
2021/06/19 05:21:51;;;;;;;0.70;0.40;;;;;;;;;;5034859;28;20500;-53
2021/06/19 05:24:18;;;;;;;2.93;0.33;;;;;;;;;;5034779;28;20029;-52
2021/06/19 05:26:47;;;;;;;0.93;0.70;;;;;;;;;;5034786;28;20025;-53
2021/06/19 05:29:14;;;;;;;3.63;0.50;;;;;;;;;;5035713;28;20077;-53
2021/06/19 05:31:41;;;;;;;4.17;0.30;;;;;;;;;;5034529;28;20079;-53
2021/06/19 05:34:07;;;;;;;0.20;0.20;;;;;;;;;;5034566;28;20030;-52
2021/06/19 05:36:34;;;;;;;2.77;0.40;;;;;;;;;;5034766;28;20108;-53
2021/06/19 05:39:01;;;;;;;1.10;0.20;;;;;;;;;;5034568;28;20039;-53
2021/06/19 05:41:28;;;;;;;1.77;0.37;;;;;;;;;;5034314;28;20096;-53
2021/06/19 05:43:55;;;;;;;2.63;0.13;;;;;;;;;;5034247;28;20113;-53
2021/06/19 05:46:22;;;;;;;1.07;0.20;;;;;;;;;;5034394;28;20025;-53
2021/06/19 05:48:48;;;;;;;0.77;0.20;;;;;;;;;;5034682;28;20017;-52
2021/06/19 05:51:15;;;;;;;0.33;0.10;;;;;;;;;;5034229;28;20026;-53
2021/06/19 05:53:42;;;;;;;4.93;0.70;;;;;;;;;;5034135;28;20025;-53
2021/06/19 05:56:09;;;;;;;6.43;0.50;;;;;;;;;;5034074;28;20040;-53
2021/06/19 05:58:35;;;;;;;1.37;0.20;;;;;;;;;;5033993;28;20488;-53
2021/06/19 06:01:02;;;;;;;0.30;0.30;;;;;;;;;;5034046;28;20476;-53
2021/06/19 06:03:29;;;;;;;3.80;0.80;;;;;;;;;;5033843;28;20484;-52
2021/06/19 06:05:56;;;;;;;8.63;0.63;;;;;;;;;;5033981;28;20469;-51
2021/06/19 06:08:22;;;;;;;1.67;0.40;;;;;;;;;;5033914;28;20468;-51
2021/06/19 06:10:49;;;;;;;1.40;0.37;;;;;;;;;;5033906;28;20030;-51
2021/06/19 06:13:16;;;;;;;2.00;0.40;;;;;;;;;;5033863;28;20100;-51
2021/06/19 06:15:43;;;;;;;5.93;0.60;;;;;;;;;;5033754;28;20393;-51
2021/06/19 06:18:10;;;;;;;3.70;0.40;;;;;;;;;;5033791;28;20387;-51
2021/06/19 06:20:36;;;;;;;2.23;0.10;;;;;;;;;;5033722;28;20025;-51
2021/06/19 06:23:03;;;;;;;0.20;0.17;;;;;;;;;;5033555;28;20021;-51
2021/06/19 06:25:30;;;;;;;2.77;0.30;;;;;;;;;;5033498;28;20408;-52
2021/06/19 06:27:57;;;;;;;2.40;1.27;;;;;;;;;;5033475;28;20029;-51
2021/06/19 06:30:24;;;;;;;2.30;0.57;;;;;;;;;;5034809;28;20072;-51
2021/06/19 06:32:51;;;;;;;1.47;0.50;;;;;;;;;;5033375;28;20049;-51
2021/06/19 06:35:18;;;;;;;1.63;0.33;;;;;;;;;;5033314;28;20392;-51
2021/06/19 06:37:47;;;;;;;1.40;0.60;;;;;;;;;;5033205;28;20021;-51
2021/06/19 06:40:14;;;;;;;1.63;0.70;;;;;;;;;;5033445;28;20035;-51
2021/06/19 06:42:42;;;;;;;4.90;0.70;;;;;;;;;;5032706;28;20043;-51
2021/06/19 06:45:12;;;;;;;1.30;0.47;;;;;;;;;;5033221;28;20022;-51
2021/06/19 06:47:40;;;;;;;4.77;0.63;;;;;;;;;;5033188;28;20029;-51
2021/06/19 06:50:07;;;;;;;2.93;0.80;;;;;;;;;;5033326;28;20022;-51
2021/06/19 06:52:35;;;;;;;2.23;0.40;;;;;;;;;;5033027;28;20029;-51
2021/06/19 06:55:02;;;;;;;1.90;0.30;;;;;;;;;;5033096;28;20353;-51
2021/06/19 06:57:29;;;;;;;1.87;0.33;;;;;;;;;;5033170;28;20030;-51
2021/06/19 06:59:55;;;;;;;5.57;0.83;;;;;;;;;;5032857;28;20024;-51
2021/06/19 07:02:22;;;;;;;4.67;0.80;;;;;;;;;;5032782;28;20031;-51
2021/06/19 07:04:52;;;;;;;3.50;0.53;;;;;;;;;;5032921;28;20018;-51
2021/06/19 07:07:19;;;;;;;3.53;0.73;;;;;;;;;;5032886;28;20021;-51
2021/06/19 07:09:45;;;;;;;2.03;0.50;;;;;;;;;;5032885;28;20500;-51
2021/06/19 07:12:12;;;;;;;17.57;0.83;;;;;;;;;;5032750;28;20385;-51
2021/06/19 07:14:39;;;;;;;3.60;0.57;;;;;;;;;;5032782;28;20076;-51
2021/06/19 07:17:08;;;;;;;1.33;0.53;;;;;;;;;;5032835;28;20034;-51
2021/06/19 07:19:35;;;;;;;2.73;0.60;;;;;;;;;;5032843;28;20053;-51
2021/06/19 07:22:02;;;;;;;1.37;0.60;;;;;;;;;;5032704;28;20083;-51
2021/06/19 07:24:29;;;;;;;3.20;0.70;;;;;;;;;;5032651;28;20021;-51
2021/06/19 07:26:56;;;;;;;4.93;0.63;;;;;;;;;;5032655;28;20049;-51
2021/06/19 07:29:22;;;;;;;2.70;0.37;;;;;;;;;;5034004;28;20092;-51
2021/06/19 07:31:49;;;;;;;3.67;0.37;;;;;;;;;;5032705;28;20025;-51
2021/06/19 07:34:16;;;;;;;2.57;0.60;;;;;;;;;;5032488;28;20108;-52
2021/06/19 07:36:45;;;;;;;18.13;1.23;;;;;;;;;;5032461;28;20029;-51
2021/06/19 07:39:15;;;;;;;2.67;0.47;;;;;;;;;;5032552;28;20430;-52
2021/06/19 07:41:42;;;;;;;1.77;0.30;;;;;;;;;;5032458;28;20554;-51
2021/06/19 07:44:10;;;;;;;1.53;0.20;;;;;;;;;;5032580;28;20495;-51
2021/06/19 07:46:37;;;;;;;1.93;0.47;;;;;;;;;;5032418;28;20037;-51
2021/06/19 07:49:03;;;;;;;2.30;0.40;;;;;;;;;;5032462;28;20079;-51
2021/06/19 07:51:31;;;;;;;1.10;0.20;;;;;;;;;;5032553;28;20026;-51
2021/06/19 07:53:58;;;;;;;2.10;0.40;;;;;;;;;;5035431;28;20038;-52
2021/06/19 07:56:26;;;;;;;3.27;0.53;;;;;;;;;;5036279;28;20045;-51
2021/06/19 07:58:53;;;;;;;2.40;0.10;;;;;;;;;;5036419;28;20032;-51
2021/06/19 08:01:19;;;;;;;6.97;0.33;;;;;;;;;;5036307;28;20021;-51
2021/06/19 08:03:46;;;;;;;2.80;0.10;;;;;;;;;;5036221;28;20021;-52
2021/06/19 08:06:13;;;;;;;1.00;0.23;;;;;;;;;;5036093;28;20037;-51
2021/06/19 08:08:40;;;;;;;4.00;0.30;;;;;;;;;;5036215;28;20017;-51
2021/06/19 08:11:06;;;;;;;15.50;2.60;;;;;;;;;;5035974;28;20025;-51
2021/06/19 08:13:33;;;;;;;0.83;0.20;;;;;;;;;;5036083;28;20021;-51
2021/06/19 08:16:03;;;;;;;2.83;0.30;;;;;;;;;;5035901;28;20092;-51
2021/06/19 08:18:30;;;;;;;6.03;0.50;;;;;;;;;;5035959;28;20477;-51
2021/06/19 08:20:56;;;;;;;2.27;0.30;;;;;;;;;;5035836;28;20030;-51
2021/06/19 08:23:23;;;;;;;1.70;0.30;;;;;;;;;;5035670;28;20384;-51
2021/06/19 08:25:51;;;;;;;2.10;0.20;;;;;;;;;;5035828;28;20427;-51
2021/06/19 08:28:17;;;;;;;1.60;0.10;;;;;;;;;;5035890;28;20029;-51
2021/06/19 08:30:44;;;;;;;4.33;0.50;;;;;;;;;;5037097;28;20064;-51
2021/06/19 08:33:11;;;;;;;3.83;0.50;;;;;;;;;;5035568;28;20037;-51
2021/06/19 08:35:38;;;;;;;1.40;0.40;;;;;;;;;;5035508;28;20487;-51
2021/06/19 08:38:04;;;;;;;3.97;0.40;;;;;;;;;;5035533;28;20064;-51
2021/06/19 08:40:31;;;;;;;5.90;0.93;;;;;;;;;;5035592;28;20026;-51
2021/06/19 08:42:58;;;;;;;3.60;0.50;;;;;;;;;;5017756;28;20112;-51
2021/06/19 08:45:25;;;;;;;0.57;0.33;;;;;;;;;;5035470;28;20021;-51
2021/06/19 08:47:52;;;;;;;1.43;0.67;;;;;;;;;;5035427;28;20427;-50
2021/06/19 08:50:19;;;;;;;2.30;0.50;;;;;;;;;;5035486;28;20077;-51
2021/06/19 08:52:46;;;;;;;3.47;0.60;;;;;;;;;;5035256;28;20489;-51
2021/06/19 08:55:18;;;;;;;2.00;0.40;;;;;;;;;;5035204;28;20413;-51
2021/06/19 08:57:45;;;;;;;1.90;0.40;;;;;;;;;;5035107;28;20404;-51
2021/06/19 09:00:13;;;;;;;4.40;0.80;;;;;;;;;;5035237;28;20053;-51
2021/06/19 09:02:40;;;;;;;0.73;0.40;;;;;;;;;;5035062;28;20477;-51
2021/06/19 09:05:08;;;;;;;10.67;0.70;;;;;;;;;;5034359;28;20368;-51
2021/06/19 09:07:38;;;;;;;4.73;0.67;;;;;;;;;;5035162;28;20487;-51
2021/06/19 09:10:23;;;;;;;3.70;0.77;;;;;;;;;;5035303;28;20025;-51
2021/06/19 09:13:01;;;;;;;1.95;0.77;;;;;;;;;;5034960;28;20025;-51
2021/06/19 09:15:29;;;;;;;1.70;0.47;;;;;;;;;;5034838;28;20037;-51
2021/06/19 09:18:07;;;;;;;0.60;0.50;;;;;;;;;;5035230;28;20026;-51
2021/06/19 09:20:35;;;;;;;1.50;0.67;;;;;;;;;;5034778;28;20025;-51
2021/06/19 09:23:02;;;;;;;1.50;0.50;;;;;;;;;;5034650;28;20025;-51
2021/06/19 09:25:29;;;;;;;3.40;0.83;;;;;;;;;;5034555;28;20479;-51
2021/06/19 09:27:57;;;;;;;2.33;0.80;;;;;;;;;;5034649;28;20033;-51
2021/06/19 09:30:24;;;;;;;7.93;0.70;;;;;;;;;;5035899;28;20058;-51
2021/06/19 09:32:52;;;;;;;4.77;0.90;;;;;;;;;;5034572;28;20040;-52
2021/06/19 09:35:20;;;;;;;4.03;0.60;;;;;;;;;;5034377;28;20384;-52
2021/06/19 09:37:51;;;;;;;1.27;0.30;;;;;;;;;;5034580;28;20029;-51
2021/06/19 09:40:21;;;;;;;2.63;0.57;;;;;;;;;;5034557;28;20145;-51
2021/06/19 09:42:49;;;;;;;2.37;0.73;;;;;;;;;;5016611;28;20392;-51
2021/06/19 09:45:20;;;;;;;8.50;0.90;;;;;;;;;;5034237;28;20034;-51
2021/06/19 09:47:47;;;;;;;4.57;0.77;;;;;;;;;;5016547;28;20034;-51
2021/06/19 09:50:14;;;;;;;2.27;0.90;;;;;;;;;;5034340;28;20022;-51
2021/06/19 09:52:41;;;;;;;1.10;0.67;;;;;;;;;;5034229;28;20029;-51
2021/06/19 09:55:12;;;;;;;2.17;0.50;;;;;;;;;;5034137;28;20469;-51
2021/06/19 09:57:41;;;;;;;3.37;0.40;;;;;;;;;;5034146;28;20076;-51
2021/06/19 10:00:09;;;;;;;3.40;0.77;;;;;;;;;;5034114;28;20109;-51
2021/06/19 10:02:36;;;;;;;0.83;0.63;;;;;;;;;;5033829;28;20484;-52
2021/06/19 10:05:03;;;;;;;2.43;1.10;;;;;;;;;;5033804;28;20029;-51
2021/06/19 10:07:34;;;;;;;4.43;1.50;;;;;;;;;;5033907;28;20040;-52
2021/06/19 10:10:01;;;;;;;4.30;1.20;;;;;;;;;;5033928;28;20035;-51
2021/06/19 10:12:29;;;;;;;3.07;1.30;;;;;;;;;;5034019;28;20038;-51
2021/06/19 10:15:00;;;;;;;3.70;1.53;;;;;;;;;;5033713;28;20113;-51
2021/06/19 10:17:31;;;;;;;4.50;1.57;;;;;;;;;;5032835;28;20029;-51
2021/06/19 10:20:02;;;;;;;5.87;1.67;;;;;;;;;;5033712;28;20061;-51
2021/06/19 10:22:29;;;;;;;3.63;1.53;;;;;;;;;;5033583;28;20052;-51
2021/06/19 10:24:59;;;;;;;2.73;1.40;;;;;;;;;;5033559;28;20416;-51
2021/06/19 10:27:29;;;;;;;3.83;1.70;;;;;;;;;;5033608;28;20053;-51
2021/06/19 10:29:57;;;;;;;6.40;1.67;;;;;;;;;;5034877;28;20049;-51
2021/06/19 10:32:43;;;;;;;3.97;1.70;;;;;;;;;;5033576;28;20471;-51
2021/06/19 10:35:11;;;;;;;;;;;;;;;;;;5033763;28;20038;-51
2021/06/19 10:37:37;;;;;;;2.80;1.50;;;;;;;;;;5033392;28;20371;-52
2021/06/19 10:40:18;;;;;;;2.67;1.20;;;;;;;;;;5033331;28;20032;-51
2021/06/19 10:42:44;;;;;;;3.10;1.20;;;;;;;;;;5033195;28;20033;-51
2021/06/19 10:45:22;;;;;;;3.70;1.10;;;;;;;;;;5033225;28;20026;-51
2021/06/19 10:47:58;;;;;;;6.70;1.53;;;;;;;;;;5033117;28;20029;-51
2021/06/19 10:50:25;;;;;;;2.20;1.10;;;;;;;;;;5033296;28;20052;-51
2021/06/19 10:53:06;;;;;;;2.37;1.40;;;;;;;;;;5032961;28;20116;-51
2021/06/19 10:55:53;;;;;;;4.37;1.40;;;;;;;;;;5033040;28;20068;-51
2021/06/19 10:58:21;;;;;;;2.73;1.50;;;;;;;;;;5033068;28;20026;-51
2021/06/19 11:00:50;;;;;;;5.90;1.60;;;;;;;;;;5033062;28;20025;-51
2021/06/19 11:03:18;;;;;;;2.30;1.40;;;;;;;;;;5032848;28;20021;-51
2021/06/19 11:05:52;;;;;;;4.70;1.40;;;;;;;;;;5032832;28;20033;-51
2021/06/19 11:08:19;;;;;;;2.37;1.50;;;;;;;;;;5032812;28;20033;-51
2021/06/19 11:10:50;;;;;;;3.50;1.53;;;;;;;;;;5032788;28;20029;-52
2021/06/19 11:13:29;;;;;;;3.10;1.67;;;;;;;;;;5032704;28;20033;-51
2021/06/19 11:15:56;;;;;;;2.07;1.50;;;;;;;;;;5032638;28;20034;-51
2021/06/19 11:18:41;;;;;;;4.13;1.30;;;;;;;;;;5032659;28;20026;-51
2021/06/19 11:21:11;;;;;;;4.45;1.33;;;;;;;;;;5032715;28;20021;-51
2021/06/19 11:23:56;;;;;;;3.50;1.20;;;;;;;;;;5032544;28;20484;-52
2021/06/19 11:26:42;;;;;;;6.75;1.70;;;;;;;;;;5033025;28;20029;-52
2021/06/19 11:29:26;;;;;;;9.85;1.40;;;;;;;;;;5032306;28;20026;-51
2021/06/19 11:32:27;;;;;;;4.20;0.85;;;;;;;;;;5013234;28;20469;-51
2021/06/19 11:34:55;;;;;;;1.67;0.80;;;;;;;;;;5012941;28;20069;-51
2021/06/19 11:37:22;;;;;;;3.10;0.87;;;;;;;;;;5013195;28;20045;-51
2021/06/19 11:39:48;;;;;;;0.90;0.70;;;;;;;;;;5012932;28;20034;-51
2021/06/19 11:42:15;;;;;;;3.20;0.80;;;;;;;;;;5012900;28;20488;-52
2021/06/19 11:44:43;;;;;;;1.87;1.20;;;;;;;;;;5012715;28;20038;-51
2021/06/19 11:47:10;;;;;;;4.03;1.13;;;;;;;;;;5012897;28;20041;-52
2021/06/19 11:49:39;;;;;;;4.33;1.10;;;;;;;;;;5012834;28;20076;-51
2021/06/19 11:52:06;;;;;;;2.67;1.30;;;;;;;;;;5013102;28;20056;-51
2021/06/19 11:54:40;;;;;;;1.83;1.10;;;;;;;;;;5012631;28;20034;-51
2021/06/19 11:57:08;;;;;;;2.35;0.77;;;;;;;;;;5012616;28;20396;-51
2021/06/19 11:59:34;;;;;;;2.10;1.00;;;;;;;;;;5012685;28;20089;-51
2021/06/19 12:02:01;;;;;;;8.30;0.90;;;;;;;;;;5012744;28;20030;-51
2021/06/19 12:04:29;;;;;;;1.37;0.90;;;;;;;;;;5012568;28;20030;-51
2021/06/19 12:06:57;;;;;;;6.37;1.40;;;;;;;;;;5012557;28;20096;-51
2021/06/19 12:09:25;;;;;;;6.20;1.60;;;;;;;;;;5012626;28;20022;-51
2021/06/19 12:11:54;;;;;;;5.60;1.83;;;;;;;;;;5012592;28;20033;-51
2021/06/19 12:14:25;;;;;;;4.03;1.50;;;;;;;;;;5012523;28;20376;-52
2021/06/19 12:16:53;;;;;;;3.23;1.40;;;;;;;;;;5012462;28;20097;-51
2021/06/19 12:19:21;;;;;;;2.23;1.43;;;;;;;;;;5012467;28;20026;-51
2021/06/19 12:21:49;;;;;;;6.67;2.13;;;;;;;;;;5012587;28;20034;-51
2021/06/19 12:24:20;;;;;;;6.47;1.80;;;;;;;;;;5012330;28;20381;-51
2021/06/19 12:27:02;;;;;;;3.37;1.70;;;;;;;;;;5012501;28;20026;-51
2021/06/19 12:29:39;;;;;;;3.20;1.70;;;;;;;;;;5015289;28;20026;-52
2021/06/19 12:32:20;;;;;;;2.87;1.53;;;;;;;;;;5032174;28;20113;-51
2021/06/19 12:34:47;;;;;;;4.60;1.77;;;;;;;;;;5032059;28;20076;-51
2021/06/19 12:37:15;;;;;;;6.40;1.40;;;;;;;;;;5032002;28;20116;-51
2021/06/19 12:39:44;;;;;;;4.33;1.10;;;;;;;;;;5033011;28;20158;-51
2021/06/19 12:42:11;;;;;;;2.97;0.87;;;;;;;;;;5035663;28;20152;-51
2021/06/19 12:44:38;;;;;;;1.17;0.70;;;;;;;;;;5035754;28;20029;-51
2021/06/19 12:47:18;;;;;;;1.57;0.90;;;;;;;;;;5035404;28;20029;-51
2021/06/19 12:49:57;;;;;;;3.10;1.10;;;;;;;;;;5035687;28;20061;-51
2021/06/19 12:52:24;;;;;;;2.57;0.80;;;;;;;;;;5035456;28;20029;-51
2021/06/19 12:55:11;;;;;;;7.07;0.90;;;;;;;;;;5035299;28;20036;-51
2021/06/19 12:57:38;;;;;;;3.60;1.50;;;;;;;;;;5035236;28;20030;-51
2021/06/19 13:00:06;;;;;;;3.13;1.83;;;;;;;;;;5035178;28;20025;-50
2021/06/19 13:02:52;;;;;;;4.80;2.53;;;;;;;;;;5035132;28;20032;-51
2021/06/19 13:05:19;;;;;;;8.57;2.95;;;;;;;;;;5035414;28;20530;-52
2021/06/19 13:07:46;;;;;;;5.60;2.40;;;;;;;;;;5035141;28;20056;-51
2021/06/19 13:10:12;;;;;;;5.33;2.40;;;;;;;;;;5034981;28;20030;-51
2021/06/19 13:12:52;;;;;;;5.43;2.50;;;;;;;;;;5034991;28;20052;-51
2021/06/19 13:15:18;;;;;;;8.43;2.60;;;;;;;;;;5035001;28;20026;-51
2021/06/19 13:17:46;;;;;;;4.53;2.10;;;;;;;;;;5034724;28;20053;-51
2021/06/19 13:20:39;;;;;;;6.20;2.17;;;;;;;;;;5034924;28;20029;-51
2021/06/19 13:23:10;;;;;;;3.07;2.10;;;;;;;;;;5034783;28;20029;-51
2021/06/19 13:25:52;;;;;;;6.20;1.67;;;;;;;;;;5035003;28;20447;-51
2021/06/19 13:28:37;;;;;;;3.43;2.07;;;;;;;;;;5034716;28;20104;-51
2021/06/19 13:31:05;;;;;;;4.15;1.80;;;;;;;;;;5035990;28;20381;-52
2021/06/19 13:33:31;;;;;;;5.93;1.90;;;;;;;;;;5034681;28;20041;-52
2021/06/19 13:35:58;;;;;;;3.37;1.67;;;;;;;;;;5034736;28;20034;-52
2021/06/19 13:38:25;;;;;;;10.87;2.73;;;;;;;;;;5034452;28;20487;-51
2021/06/19 13:40:52;;;;;;;4.60;2.17;;;;;;;;;;5034554;28;20419;-51
2021/06/19 13:43:19;;;;;;;5.50;2.13;;;;;;;;;;5034426;28;20022;-51
2021/06/19 13:45:46;;;;;;;6.53;2.63;;;;;;;;;;5034252;28;20029;-51
2021/06/19 13:48:12;;;;;;;4.83;1.90;;;;;;;;;;5034575;28;20063;-51
2021/06/19 13:50:39;;;;;;;6.20;2.40;;;;;;;;;;5034255;28;20026;-51
2021/06/19 13:53:06;;;;;;;2.90;1.90;;;;;;;;;;5034029;28;20036;-52
2021/06/19 13:55:33;;;;;;;4.97;2.00;;;;;;;;;;5034048;28;20428;-51
2021/06/19 13:57:59;;;;;;;4.23;2.53;;;;;;;;;;5034228;28;20029;-51
2021/06/19 14:00:29;;;;;;;3.80;2.40;;;;;;;;;;5034313;28;20040;-51
2021/06/19 14:02:56;;;;;;;6.30;2.40;;;;;;;;;;5033911;28;20030;-51
2021/06/19 14:05:22;;;;;;;5.47;2.40;;;;;;;;;;5034100;28;20420;-51
2021/06/19 14:07:49;;;;;;;5.50;2.37;;;;;;;;;;5034044;28;20452;-52
2021/06/19 14:10:16;;;;;;;3.67;2.40;;;;;;;;;;5033807;28;20472;-51
2021/06/19 14:12:43;;;;;;;5.43;2.23;;;;;;;;;;5033726;28;20072;-52
2021/06/19 14:15:13;;;;;;;4.83;2.30;;;;;;;;;;5033867;28;20026;-51
2021/06/19 14:17:40;;;;;;;4.23;2.37;;;;;;;;;;5033577;28;20492;-51
2021/06/19 14:20:07;;;;;;;3.10;1.97;;;;;;;;;;5033721;28;20031;-52
2021/06/19 14:22:34;;;;;;;6.47;2.67;;;;;;;;;;5033731;28;20022;-51
2021/06/19 14:25:01;;;;;;;4.80;2.50;;;;;;;;;;5033528;28;20107;-51
2021/06/19 14:27:28;;;;;;;8.07;2.67;;;;;;;;;;5033558;28;20033;-51
2021/06/19 14:29:54;;;;;;;6.83;2.50;;;;;;;;;;5034849;28;20123;-51
2021/06/19 14:32:22;;;;;;;7.43;2.40;;;;;;;;;;5033462;28;20040;-51
2021/06/19 14:34:49;;;;;;;4.83;2.10;;;;;;;;;;5033526;28;20027;-52
2021/06/19 14:37:17;;;;;;;7.33;2.10;;;;;;;;;;5033385;28;20042;-51
2021/06/19 14:39:43;;;;;;;3.60;1.73;;;;;;;;;;5033410;28;20041;-51
2021/06/19 14:42:11;;;;;;;2.70;1.50;;;;;;;;;;5033302;28;20061;-51
2021/06/19 14:44:38;;;;;;;3.27;1.40;;;;;;;;;;5033125;28;20056;-51
2021/06/19 14:47:04;;;;;;;3.40;1.47;;;;;;;;;;5033307;28;20080;-51
2021/06/19 14:49:31;;;;;;;5.13;1.40;;;;;;;;;;5033317;28;20022;-51
2021/06/19 14:51:58;;;;;;;3.83;2.03;;;;;;;;;;5033133;28;20033;-52
2021/06/19 14:54:25;;;;;;;5.70;1.50;;;;;;;;;;5032978;28;20088;-51